sensor_id;sensor_type;location;lat;lon;timestamp;P1;durP1;ratioP1;P2;durP2;ratioP2
70342;SDS011;57767;42.068;24.752;2022-12-17T00:00:20;85.53;;;29.08;;
70342;SDS011;57767;42.068;24.752;2022-12-17T00:01:41;83.65;;;28.30;;
70342;SDS011;57767;42.068;24.752;2022-12-17T00:03:02;82.60;;;27.83;;
70342;SDS011;57767;42.068;24.752;2022-12-17T00:04:22;87.88;;;27.08;;
70342;SDS011;57767;42.068;24.752;2022-12-17T00:05:43;84.40;;;27.92;;
70342;SDS011;57767;42.068;24.752;2022-12-17T00:07:04;80.40;;;28.10;;
70342;SDS011;57767;42.068;24.752;2022-12-17T00:08:24;76.20;;;27.40;;
70342;SDS011;57767;42.068;24.752;2022-12-17T00:09:45;72.65;;;25.17;;
70342;SDS011;57767;42.068;24.752;2022-12-17T00:11:05;88.35;;;26.38;;
70342;SDS011;57767;42.068;24.752;2022-12-17T00:12:25;77.95;;;26.73;;
70342;SDS011;57767;42.068;24.752;2022-12-17T00:13:46;81.47;;;26.33;;
70342;SDS011;57767;42.068;24.752;2022-12-17T00:15:06;93.50;;;26.10;;
70342;SDS011;57767;42.068;24.752;2022-12-17T00:16:26;80.53;;;28.75;;
70342;SDS011;57767;42.068;24.752;2022-12-17T00:17:47;90.03;;;30.90;;
70342;SDS011;57767;42.068;24.752;2022-12-17T00:19:07;66.35;;;27.42;;
70342;SDS011;57767;42.068;24.752;2022-12-17T00:20:28;76.68;;;25.98;;
70342;SDS011;57767;42.068;24.752;2022-12-17T00:21:53;90.30;;;24.85;;
70342;SDS011;57767;42.068;24.752;2022-12-17T00:23:33;94.65;;;25.60;;
70342;SDS011;57767;42.068;24.752;2022-12-17T00:24:56;99.50;;;27.50;;
70342;SDS011;57767;42.068;24.752;2022-12-17T00:26:16;90.63;;;26.73;;
70342;SDS011;57767;42.068;24.752;2022-12-17T00:27:36;92.32;;;26.83;;
70342;SDS011;57767;42.068;24.752;2022-12-17T00:28:57;82.07;;;26.38;;
70342;SDS011;57767;42.068;24.752;2022-12-17T00:30:17;111.20;;;28.20;;
70342;SDS011;57767;42.068;24.752;2022-12-17T00:31:37;114.57;;;31.97;;
70342;SDS011;57767;42.068;24.752;2022-12-17T00:32:57;82.25;;;27.63;;
70342;SDS011;57767;42.068;24.752;2022-12-17T00:34:17;106.13;;;28.85;;
70342;SDS011;57767;42.068;24.752;2022-12-17T00:35:37;100.07;;;29.38;;
70342;SDS011;57767;42.068;24.752;2022-12-17T00:36:58;89.15;;;28.80;;
70342;SDS011;57767;42.068;24.752;2022-12-17T00:38:19;78.38;;;27.50;;
70342;SDS011;57767;42.068;24.752;2022-12-17T00:39:39;84.07;;;25.15;;
70342;SDS011;57767;42.068;24.752;2022-12-17T00:41:00;79.95;;;26.85;;
70342;SDS011;57767;42.068;24.752;2022-12-17T00:42:20;87.93;;;26.38;;
70342;SDS011;57767;42.068;24.752;2022-12-17T00:43:41;60.58;;;23.85;;
70342;SDS011;57767;42.068;24.752;2022-12-17T00:45:01;63.25;;;22.15;;
70342;SDS011;57767;42.068;24.752;2022-12-17T00:46:22;71.85;;;23.08;;
70342;SDS011;57767;42.068;24.752;2022-12-17T00:47:42;79.40;;;23.65;;
70342;SDS011;57767;42.068;24.752;2022-12-17T00:49:03;51.83;;;21.63;;
70342;SDS011;57767;42.068;24.752;2022-12-17T00:50:23;70.82;;;24.38;;
70342;SDS011;57767;42.068;24.752;2022-12-17T00:51:44;62.28;;;23.35;;
70342;SDS011;57767;42.068;24.752;2022-12-17T00:53:04;76.90;;;24.10;;
70342;SDS011;57767;42.068;24.752;2022-12-17T00:54:24;52.25;;;21.17;;
70342;SDS011;57767;42.068;24.752;2022-12-17T00:55:45;49.17;;;18.88;;
70342;SDS011;57767;42.068;24.752;2022-12-17T00:57:19;50.35;;;22.42;;
70342;SDS011;57767;42.068;24.752;2022-12-17T00:58:40;51.28;;;22.73;;
70342;SDS011;57767;42.068;24.752;2022-12-17T01:00:00;46.95;;;21.52;;
70342;SDS011;57767;42.068;24.752;2022-12-17T01:01:20;45.92;;;19.92;;
70342;SDS011;57767;42.068;24.752;2022-12-17T01:02:41;49.35;;;18.35;;
70342;SDS011;57767;42.068;24.752;2022-12-17T01:04:01;46.42;;;19.92;;
70342;SDS011;57767;42.068;24.752;2022-12-17T01:05:22;72.05;;;18.17;;
70342;SDS011;57767;42.068;24.752;2022-12-17T01:06:42;47.75;;;17.90;;
70342;SDS011;57767;42.068;24.752;2022-12-17T01:08:06;43.97;;;18.70;;
70342;SDS011;57767;42.068;24.752;2022-12-17T01:09:27;52.83;;;19.17;;
70342;SDS011;57767;42.068;24.752;2022-12-17T01:10:48;48.42;;;17.48;;
70342;SDS011;57767;42.068;24.752;2022-12-17T01:12:08;73.63;;;20.33;;
70342;SDS011;57767;42.068;24.752;2022-12-17T01:13:29;46.97;;;19.70;;
70342;SDS011;57767;42.068;24.752;2022-12-17T01:14:49;51.22;;;18.92;;
70342;SDS011;57767;42.068;24.752;2022-12-17T01:16:17;64.75;;;18.77;;
70342;SDS011;57767;42.068;24.752;2022-12-17T01:17:37;59.33;;;18.40;;
70342;SDS011;57767;42.068;24.752;2022-12-17T01:18:57;54.97;;;17.85;;
70342;SDS011;57767;42.068;24.752;2022-12-17T01:20:18;76.43;;;18.10;;
70342;SDS011;57767;42.068;24.752;2022-12-17T01:21:39;68.30;;;20.65;;
70342;SDS011;57767;42.068;24.752;2022-12-17T01:22:59;88.07;;;22.20;;
70342;SDS011;57767;42.068;24.752;2022-12-17T01:24:19;73.07;;;18.35;;
70342;SDS011;57767;42.068;24.752;2022-12-17T01:25:40;45.35;;;17.67;;
70342;SDS011;57767;42.068;24.752;2022-12-17T01:27:00;63.17;;;21.95;;
70342;SDS011;57767;42.068;24.752;2022-12-17T01:28:22;61.25;;;21.15;;
70342;SDS011;57767;42.068;24.752;2022-12-17T01:29:43;60.00;;;20.90;;
70342;SDS011;57767;42.068;24.752;2022-12-17T01:31:03;65.30;;;18.98;;
70342;SDS011;57767;42.068;24.752;2022-12-17T01:32:23;66.57;;;19.23;;
70342;SDS011;57767;42.068;24.752;2022-12-17T01:33:44;78.53;;;19.58;;
70342;SDS011;57767;42.068;24.752;2022-12-17T01:35:05;107.90;;;19.67;;
70342;SDS011;57767;42.068;24.752;2022-12-17T01:36:26;76.32;;;21.30;;
70342;SDS011;57767;42.068;24.752;2022-12-17T01:37:46;76.03;;;18.42;;
70342;SDS011;57767;42.068;24.752;2022-12-17T01:39:06;75.90;;;19.77;;
70342;SDS011;57767;42.068;24.752;2022-12-17T01:40:27;46.83;;;18.93;;
70342;SDS011;57767;42.068;24.752;2022-12-17T01:41:47;65.10;;;18.73;;
70342;SDS011;57767;42.068;24.752;2022-12-17T01:43:11;74.80;;;17.80;;
70342;SDS011;57767;42.068;24.752;2022-12-17T01:44:54;55.90;;;17.67;;
70342;SDS011;57767;42.068;24.752;2022-12-17T01:46:14;82.53;;;18.35;;
70342;SDS011;57767;42.068;24.752;2022-12-17T01:49:05;47.90;;;16.83;;
70342;SDS011;57767;42.068;24.752;2022-12-17T01:50:29;62.65;;;17.20;;
70342;SDS011;57767;42.068;24.752;2022-12-17T01:51:52;61.08;;;17.92;;
70342;SDS011;57767;42.068;24.752;2022-12-17T01:53:13;58.78;;;17.85;;
70342;SDS011;57767;42.068;24.752;2022-12-17T01:54:37;42.28;;;15.45;;
70342;SDS011;57767;42.068;24.752;2022-12-17T01:55:58;39.78;;;16.35;;
70342;SDS011;57767;42.068;24.752;2022-12-17T01:57:19;54.72;;;13.93;;
70342;SDS011;57767;42.068;24.752;2022-12-17T01:58:40;36.93;;;13.80;;
70342;SDS011;57767;42.068;24.752;2022-12-17T02:00:03;33.72;;;13.77;;
70342;SDS011;57767;42.068;24.752;2022-12-17T02:01:25;45.40;;;16.95;;
70342;SDS011;57767;42.068;24.752;2022-12-17T02:02:46;69.25;;;16.45;;
70342;SDS011;57767;42.068;24.752;2022-12-17T02:04:07;46.80;;;17.83;;
70342;SDS011;57767;42.068;24.752;2022-12-17T02:11:02;43.70;;;17.88;;
70342;SDS011;57767;42.068;24.752;2022-12-17T02:12:29;53.13;;;19.02;;
70342;SDS011;57767;42.068;24.752;2022-12-17T02:14:15;45.30;;;18.85;;
70342;SDS011;57767;42.068;24.752;2022-12-17T02:15:39;45.30;;;20.85;;
70342;SDS011;57767;42.068;24.752;2022-12-17T02:17:09;52.88;;;18.58;;
70342;SDS011;57767;42.068;24.752;2022-12-17T02:18:35;71.53;;;16.13;;
70342;SDS011;57767;42.068;24.752;2022-12-17T02:21:47;51.60;;;16.10;;
70342;SDS011;57767;42.068;24.752;2022-12-17T02:23:36;54.67;;;16.30;;
70342;SDS011;57767;42.068;24.752;2022-12-17T02:25:01;53.35;;;18.23;;
70342;SDS011;57767;42.068;24.752;2022-12-17T02:27:14;52.35;;;18.48;;
70342;SDS011;57767;42.068;24.752;2022-12-17T02:28:21;57.03;;;18.65;;
70342;SDS011;57767;42.068;24.752;2022-12-17T02:29:43;69.05;;;20.10;;
70342;SDS011;57767;42.068;24.752;2022-12-17T02:31:07;61.80;;;19.48;;
70342;SDS011;57767;42.068;24.752;2022-12-17T02:32:28;46.45;;;19.08;;
70342;SDS011;57767;42.068;24.752;2022-12-17T02:33:51;54.50;;;19.25;;
70342;SDS011;57767;42.068;24.752;2022-12-17T02:35:14;72.50;;;18.88;;
70342;SDS011;57767;42.068;24.752;2022-12-17T02:36:36;55.35;;;19.30;;
70342;SDS011;57767;42.068;24.752;2022-12-17T02:37:56;71.00;;;21.30;;
70342;SDS011;57767;42.068;24.752;2022-12-17T02:39:17;54.22;;;21.00;;
70342;SDS011;57767;42.068;24.752;2022-12-17T02:40:37;53.95;;;20.15;;
70342;SDS011;57767;42.068;24.752;2022-12-17T02:41:59;50.05;;;20.45;;
70342;SDS011;57767;42.068;24.752;2022-12-17T02:43:20;58.88;;;19.90;;
70342;SDS011;57767;42.068;24.752;2022-12-17T02:44:43;49.38;;;21.02;;
70342;SDS011;57767;42.068;24.752;2022-12-17T02:46:04;55.13;;;20.20;;
70342;SDS011;57767;42.068;24.752;2022-12-17T02:47:26;49.35;;;19.60;;
70342;SDS011;57767;42.068;24.752;2022-12-17T02:48:48;44.90;;;18.80;;
70342;SDS011;57767;42.068;24.752;2022-12-17T02:50:09;48.45;;;20.90;;
70342;SDS011;57767;42.068;24.752;2022-12-17T02:51:29;45.17;;;20.50;;
70342;SDS011;57767;42.068;24.752;2022-12-17T02:52:50;49.28;;;21.13;;
70342;SDS011;57767;42.068;24.752;2022-12-17T02:54:12;45.13;;;18.25;;
70342;SDS011;57767;42.068;24.752;2022-12-17T02:55:33;44.17;;;19.73;;
70342;SDS011;57767;42.068;24.752;2022-12-17T02:56:54;47.75;;;20.48;;
70342;SDS011;57767;42.068;24.752;2022-12-17T02:58:15;47.25;;;18.83;;
70342;SDS011;57767;42.068;24.752;2022-12-17T02:59:35;35.10;;;15.30;;
70342;SDS011;57767;42.068;24.752;2022-12-17T03:00:56;46.08;;;19.33;;
70342;SDS011;57767;42.068;24.752;2022-12-17T03:02:17;47.72;;;18.70;;
70342;SDS011;57767;42.068;24.752;2022-12-17T03:03:37;46.47;;;19.88;;
70342;SDS011;57767;42.068;24.752;2022-12-17T03:04:57;44.63;;;20.10;;
70342;SDS011;57767;42.068;24.752;2022-12-17T03:06:37;42.75;;;18.80;;
70342;SDS011;57767;42.068;24.752;2022-12-17T03:07:57;33.85;;;18.67;;
70342;SDS011;57767;42.068;24.752;2022-12-17T03:09:18;40.78;;;19.05;;
70342;SDS011;57767;42.068;24.752;2022-12-17T03:10:38;44.85;;;19.92;;
70342;SDS011;57767;42.068;24.752;2022-12-17T03:11:58;41.60;;;20.17;;
70342;SDS011;57767;42.068;24.752;2022-12-17T03:13:22;38.25;;;18.52;;
70342;SDS011;57767;42.068;24.752;2022-12-17T03:14:44;39.53;;;20.55;;
70342;SDS011;57767;42.068;24.752;2022-12-17T03:16:09;33.97;;;19.10;;
70342;SDS011;57767;42.068;24.752;2022-12-17T03:17:37;37.30;;;21.38;;
70342;SDS011;57767;42.068;24.752;2022-12-17T03:18:58;33.90;;;20.02;;
70342;SDS011;57767;42.068;24.752;2022-12-17T03:20:18;32.97;;;19.33;;
70342;SDS011;57767;42.068;24.752;2022-12-17T03:21:39;29.40;;;16.40;;
70342;SDS011;57767;42.068;24.752;2022-12-17T03:23:00;26.88;;;15.15;;
70342;SDS011;57767;42.068;24.752;2022-12-17T03:24:29;30.70;;;18.50;;
70342;SDS011;57767;42.068;24.752;2022-12-17T03:25:49;30.60;;;18.13;;
70342;SDS011;57767;42.068;24.752;2022-12-17T03:27:10;27.10;;;16.85;;
70342;SDS011;57767;42.068;24.752;2022-12-17T03:28:31;27.85;;;17.40;;
70342;SDS011;57767;42.068;24.752;2022-12-17T03:29:51;27.10;;;18.20;;
70342;SDS011;57767;42.068;24.752;2022-12-17T03:31:11;31.13;;;19.20;;
70342;SDS011;57767;42.068;24.752;2022-12-17T03:32:32;26.38;;;17.90;;
70342;SDS011;57767;42.068;24.752;2022-12-17T03:33:52;28.42;;;18.15;;
70342;SDS011;57767;42.068;24.752;2022-12-17T03:35:12;27.42;;;17.83;;
70342;SDS011;57767;42.068;24.752;2022-12-17T03:36:33;28.05;;;18.00;;
70342;SDS011;57767;42.068;24.752;2022-12-17T03:37:53;25.20;;;17.37;;
70342;SDS011;57767;42.068;24.752;2022-12-17T03:39:13;25.55;;;16.33;;
70342;SDS011;57767;42.068;24.752;2022-12-17T03:40:34;28.15;;;18.15;;
70342;SDS011;57767;42.068;24.752;2022-12-17T03:41:54;26.27;;;16.65;;
70342;SDS011;57767;42.068;24.752;2022-12-17T03:43:14;27.20;;;16.13;;
70342;SDS011;57767;42.068;24.752;2022-12-17T03:44:35;27.58;;;17.63;;
70342;SDS011;57767;42.068;24.752;2022-12-17T03:45:55;24.23;;;16.50;;
70342;SDS011;57767;42.068;24.752;2022-12-17T03:47:16;29.75;;;18.65;;
70342;SDS011;57767;42.068;24.752;2022-12-17T03:48:36;29.05;;;17.35;;
70342;SDS011;57767;42.068;24.752;2022-12-17T03:49:57;29.55;;;18.67;;
70342;SDS011;57767;42.068;24.752;2022-12-17T03:51:17;32.88;;;19.95;;
70342;SDS011;57767;42.068;24.752;2022-12-17T03:52:37;35.40;;;20.75;;
70342;SDS011;57767;42.068;24.752;2022-12-17T03:53:58;32.17;;;18.95;;
70342;SDS011;57767;42.068;24.752;2022-12-17T03:55:18;38.22;;;20.83;;
70342;SDS011;57767;42.068;24.752;2022-12-17T03:56:38;37.47;;;21.35;;
70342;SDS011;57767;42.068;24.752;2022-12-17T03:57:58;35.40;;;20.38;;
70342;SDS011;57767;42.068;24.752;2022-12-17T03:59:18;34.63;;;20.23;;
70342;SDS011;57767;42.068;24.752;2022-12-17T04:00:39;37.30;;;21.15;;
70342;SDS011;57767;42.068;24.752;2022-12-17T04:01:59;32.65;;;20.95;;
70342;SDS011;57767;42.068;24.752;2022-12-17T04:03:20;34.58;;;20.42;;
70342;SDS011;57767;42.068;24.752;2022-12-17T04:04:40;32.05;;;20.02;;
70342;SDS011;57767;42.068;24.752;2022-12-17T04:06:01;37.20;;;21.25;;
70342;SDS011;57767;42.068;24.752;2022-12-17T04:07:21;34.88;;;19.98;;
70342;SDS011;57767;42.068;24.752;2022-12-17T04:08:42;31.17;;;19.50;;
70342;SDS011;57767;42.068;24.752;2022-12-17T04:10:02;35.95;;;18.10;;
70342;SDS011;57767;42.068;24.752;2022-12-17T04:11:23;40.38;;;18.77;;
70342;SDS011;57767;42.068;24.752;2022-12-17T04:12:43;30.77;;;17.20;;
70342;SDS011;57767;42.068;24.752;2022-12-17T04:14:03;38.92;;;19.33;;
70342;SDS011;57767;42.068;24.752;2022-12-17T04:15:23;36.00;;;19.95;;
70342;SDS011;57767;42.068;24.752;2022-12-17T04:16:44;35.13;;;20.23;;
70342;SDS011;57767;42.068;24.752;2022-12-17T04:18:04;34.80;;;20.27;;
70342;SDS011;57767;42.068;24.752;2022-12-17T04:19:24;34.83;;;17.55;;
70342;SDS011;57767;42.068;24.752;2022-12-17T04:20:44;33.15;;;18.40;;
70342;SDS011;57767;42.068;24.752;2022-12-17T04:22:04;37.35;;;19.02;;
70342;SDS011;57767;42.068;24.752;2022-12-17T04:23:25;33.87;;;21.17;;
70342;SDS011;57767;42.068;24.752;2022-12-17T04:24:46;40.77;;;18.13;;
70342;SDS011;57767;42.068;24.752;2022-12-17T04:26:06;39.28;;;21.75;;
70342;SDS011;57767;42.068;24.752;2022-12-17T04:27:26;37.47;;;21.00;;
70342;SDS011;57767;42.068;24.752;2022-12-17T04:28:47;41.53;;;23.35;;
70342;SDS011;57767;42.068;24.752;2022-12-17T04:30:07;40.65;;;22.50;;
70342;SDS011;57767;42.068;24.752;2022-12-17T04:31:28;40.95;;;23.45;;
70342;SDS011;57767;42.068;24.752;2022-12-17T04:32:48;36.75;;;21.73;;
70342;SDS011;57767;42.068;24.752;2022-12-17T04:34:08;37.20;;;21.67;;
70342;SDS011;57767;42.068;24.752;2022-12-17T04:35:28;41.03;;;23.88;;
70342;SDS011;57767;42.068;24.752;2022-12-17T04:36:49;35.07;;;21.77;;
70342;SDS011;57767;42.068;24.752;2022-12-17T04:38:09;37.78;;;23.10;;
70342;SDS011;57767;42.068;24.752;2022-12-17T04:39:30;33.28;;;20.42;;
70342;SDS011;57767;42.068;24.752;2022-12-17T04:40:50;42.03;;;23.63;;
70342;SDS011;57767;42.068;24.752;2022-12-17T04:42:11;35.38;;;23.10;;
70342;SDS011;57767;42.068;24.752;2022-12-17T04:43:32;32.63;;;20.85;;
70342;SDS011;57767;42.068;24.752;2022-12-17T04:44:52;31.38;;;17.58;;
70342;SDS011;57767;42.068;24.752;2022-12-17T04:46:13;29.80;;;17.63;;
70342;SDS011;57767;42.068;24.752;2022-12-17T04:47:33;28.73;;;15.23;;
70342;SDS011;57767;42.068;24.752;2022-12-17T04:48:53;28.50;;;19.50;;
70342;SDS011;57767;42.068;24.752;2022-12-17T04:50:13;24.30;;;15.43;;
70342;SDS011;57767;42.068;24.752;2022-12-17T04:51:34;31.25;;;19.38;;
70342;SDS011;57767;42.068;24.752;2022-12-17T04:53:01;29.55;;;20.00;;
70342;SDS011;57767;42.068;24.752;2022-12-17T04:54:22;31.63;;;18.77;;
70342;SDS011;57767;42.068;24.752;2022-12-17T04:55:43;30.20;;;18.15;;
70342;SDS011;57767;42.068;24.752;2022-12-17T04:57:04;28.17;;;18.27;;
70342;SDS011;57767;42.068;24.752;2022-12-17T04:58:25;27.05;;;17.83;;
70342;SDS011;57767;42.068;24.752;2022-12-17T04:59:45;35.60;;;18.05;;
70342;SDS011;57767;42.068;24.752;2022-12-17T05:01:06;29.65;;;18.63;;
70342;SDS011;57767;42.068;24.752;2022-12-17T05:02:26;28.38;;;18.60;;
70342;SDS011;57767;42.068;24.752;2022-12-17T05:03:47;35.85;;;18.30;;
70342;SDS011;57767;42.068;24.752;2022-12-17T05:05:07;26.52;;;15.15;;
70342;SDS011;57767;42.068;24.752;2022-12-17T05:06:28;33.47;;;17.67;;
70342;SDS011;57767;42.068;24.752;2022-12-17T05:07:51;26.20;;;17.42;;
70342;SDS011;57767;42.068;24.752;2022-12-17T05:09:15;30.75;;;18.27;;
70342;SDS011;57767;42.068;24.752;2022-12-17T05:10:35;30.75;;;17.75;;
70342;SDS011;57767;42.068;24.752;2022-12-17T05:11:56;34.40;;;17.92;;
70342;SDS011;57767;42.068;24.752;2022-12-17T05:13:16;28.65;;;15.43;;
70342;SDS011;57767;42.068;24.752;2022-12-17T05:14:37;28.20;;;13.85;;
70342;SDS011;57767;42.068;24.752;2022-12-17T05:15:57;27.27;;;15.48;;
70342;SDS011;57767;42.068;24.752;2022-12-17T05:17:17;26.10;;;14.00;;
70342;SDS011;57767;42.068;24.752;2022-12-17T05:18:38;28.10;;;13.90;;
70342;SDS011;57767;42.068;24.752;2022-12-17T05:19:59;26.27;;;15.25;;
70342;SDS011;57767;42.068;24.752;2022-12-17T05:21:19;26.55;;;13.98;;
70342;SDS011;57767;42.068;24.752;2022-12-17T05:22:40;30.90;;;16.42;;
70342;SDS011;57767;42.068;24.752;2022-12-17T05:24:00;30.05;;;17.00;;
70342;SDS011;57767;42.068;24.752;2022-12-17T05:25:20;28.52;;;15.18;;
70342;SDS011;57767;42.068;24.752;2022-12-17T05:26:41;26.27;;;16.30;;
70342;SDS011;57767;42.068;24.752;2022-12-17T05:28:01;21.53;;;12.83;;
70342;SDS011;57767;42.068;24.752;2022-12-17T05:29:22;27.05;;;16.73;;
70342;SDS011;57767;42.068;24.752;2022-12-17T05:30:42;29.27;;;16.05;;
70342;SDS011;57767;42.068;24.752;2022-12-17T05:32:11;27.48;;;15.27;;
70342;SDS011;57767;42.068;24.752;2022-12-17T05:33:31;30.30;;;16.63;;
70342;SDS011;57767;42.068;24.752;2022-12-17T05:34:51;27.95;;;15.75;;
70342;SDS011;57767;42.068;24.752;2022-12-17T05:36:12;33.83;;;16.75;;
70342;SDS011;57767;42.068;24.752;2022-12-17T05:37:32;30.58;;;16.33;;
70342;SDS011;57767;42.068;24.752;2022-12-17T05:38:52;32.03;;;15.48;;
70342;SDS011;57767;42.068;24.752;2022-12-17T05:40:13;26.27;;;15.95;;
70342;SDS011;57767;42.068;24.752;2022-12-17T05:41:34;30.38;;;15.63;;
70342;SDS011;57767;42.068;24.752;2022-12-17T05:44:14;28.67;;;16.58;;
70342;SDS011;57767;42.068;24.752;2022-12-17T05:45:34;36.10;;;18.05;;
70342;SDS011;57767;42.068;24.752;2022-12-17T05:46:57;37.15;;;19.50;;
70342;SDS011;57767;42.068;24.752;2022-12-17T05:48:17;36.75;;;18.55;;
70342;SDS011;57767;42.068;24.752;2022-12-17T05:49:37;37.95;;;18.63;;
70342;SDS011;57767;42.068;24.752;2022-12-17T05:50:57;39.38;;;19.52;;
70342;SDS011;57767;42.068;24.752;2022-12-17T05:52:17;37.15;;;20.25;;
70342;SDS011;57767;42.068;24.752;2022-12-17T05:53:37;37.22;;;19.98;;
70342;SDS011;57767;42.068;24.752;2022-12-17T05:54:57;41.90;;;20.98;;
70342;SDS011;57767;42.068;24.752;2022-12-17T05:56:17;36.88;;;21.70;;
70342;SDS011;57767;42.068;24.752;2022-12-17T05:57:38;35.25;;;20.83;;
70342;SDS011;57767;42.068;24.752;2022-12-17T05:58:58;35.90;;;20.90;;
70342;SDS011;57767;42.068;24.752;2022-12-17T06:00:19;31.20;;;20.65;;
70342;SDS011;57767;42.068;24.752;2022-12-17T06:01:39;34.83;;;20.25;;
70342;SDS011;57767;42.068;24.752;2022-12-17T06:03:01;35.75;;;21.30;;
70342;SDS011;57767;42.068;24.752;2022-12-17T06:04:22;34.22;;;19.98;;
70342;SDS011;57767;42.068;24.752;2022-12-17T06:05:43;32.50;;;20.80;;
70342;SDS011;57767;42.068;24.752;2022-12-17T06:07:03;38.03;;;23.35;;
70342;SDS011;57767;42.068;24.752;2022-12-17T06:08:24;40.90;;;26.27;;
70342;SDS011;57767;42.068;24.752;2022-12-17T06:09:44;40.25;;;24.08;;
70342;SDS011;57767;42.068;24.752;2022-12-17T06:11:05;42.50;;;25.05;;
70342;SDS011;57767;42.068;24.752;2022-12-17T06:12:25;37.88;;;23.55;;
70342;SDS011;57767;42.068;24.752;2022-12-17T06:13:45;36.30;;;23.75;;
70342;SDS011;57767;42.068;24.752;2022-12-17T06:15:06;35.78;;;22.92;;
70342;SDS011;57767;42.068;24.752;2022-12-17T06:16:27;38.90;;;24.27;;
70342;SDS011;57767;42.068;24.752;2022-12-17T06:17:54;45.35;;;28.75;;
70342;SDS011;57767;42.068;24.752;2022-12-17T06:19:17;44.15;;;27.88;;
70342;SDS011;57767;42.068;24.752;2022-12-17T06:20:38;37.42;;;23.75;;
70342;SDS011;57767;42.068;24.752;2022-12-17T06:21:59;36.33;;;23.77;;
70342;SDS011;57767;42.068;24.752;2022-12-17T06:23:19;32.55;;;20.02;;
70342;SDS011;57767;42.068;24.752;2022-12-17T06:24:39;38.08;;;21.42;;
70342;SDS011;57767;42.068;24.752;2022-12-17T06:26:00;34.90;;;18.33;;
70342;SDS011;57767;42.068;24.752;2022-12-17T06:27:20;31.58;;;19.20;;
70342;SDS011;57767;42.068;24.752;2022-12-17T06:28:40;38.63;;;21.05;;
70342;SDS011;57767;42.068;24.752;2022-12-17T06:30:01;42.88;;;21.60;;
70342;SDS011;57767;42.068;24.752;2022-12-17T06:31:21;45.28;;;20.83;;
70342;SDS011;57767;42.068;24.752;2022-12-17T06:32:42;38.92;;;20.05;;
70342;SDS011;57767;42.068;24.752;2022-12-17T06:34:07;51.67;;;18.67;;
70342;SDS011;57767;42.068;24.752;2022-12-17T06:35:27;29.50;;;15.35;;
70342;SDS011;57767;42.068;24.752;2022-12-17T06:36:48;33.55;;;16.73;;
70342;SDS011;57767;42.068;24.752;2022-12-17T06:38:08;42.60;;;19.67;;
70342;SDS011;57767;42.068;24.752;2022-12-17T06:39:29;35.53;;;19.20;;
70342;SDS011;57767;42.068;24.752;2022-12-17T06:40:50;41.50;;;21.13;;
70342;SDS011;57767;42.068;24.752;2022-12-17T06:42:11;36.08;;;18.98;;
70342;SDS011;57767;42.068;24.752;2022-12-17T06:43:31;33.10;;;17.35;;
70342;SDS011;57767;42.068;24.752;2022-12-17T06:44:52;31.17;;;17.40;;
70342;SDS011;57767;42.068;24.752;2022-12-17T06:46:12;34.63;;;18.67;;
70342;SDS011;57767;42.068;24.752;2022-12-17T06:47:32;41.20;;;19.27;;
70342;SDS011;57767;42.068;24.752;2022-12-17T06:48:53;45.40;;;19.55;;
70342;SDS011;57767;42.068;24.752;2022-12-17T06:50:13;43.65;;;21.42;;
70342;SDS011;57767;42.068;24.752;2022-12-17T06:51:34;51.33;;;22.30;;
70342;SDS011;57767;42.068;24.752;2022-12-17T06:53:01;43.47;;;22.83;;
70342;SDS011;57767;42.068;24.752;2022-12-17T06:54:21;38.53;;;17.60;;
70342;SDS011;57767;42.068;24.752;2022-12-17T06:55:42;49.50;;;20.38;;
70342;SDS011;57767;42.068;24.752;2022-12-17T06:57:03;48.00;;;16.27;;
70342;SDS011;57767;42.068;24.752;2022-12-17T06:58:23;35.40;;;16.95;;
70342;SDS011;57767;42.068;24.752;2022-12-17T06:59:43;42.50;;;19.23;;
70342;SDS011;57767;42.068;24.752;2022-12-17T07:01:03;41.23;;;18.73;;
70342;SDS011;57767;42.068;24.752;2022-12-17T07:02:24;47.80;;;21.90;;
70342;SDS011;57767;42.068;24.752;2022-12-17T07:03:44;47.25;;;23.92;;
70342;SDS011;57767;42.068;24.752;2022-12-17T07:05:05;46.58;;;19.35;;
70342;SDS011;57767;42.068;24.752;2022-12-17T07:06:25;39.83;;;15.98;;
70342;SDS011;57767;42.068;24.752;2022-12-17T07:07:46;44.20;;;20.40;;
70342;SDS011;57767;42.068;24.752;2022-12-17T07:09:06;46.90;;;18.92;;
70342;SDS011;57767;42.068;24.752;2022-12-17T07:10:26;42.05;;;20.08;;
70342;SDS011;57767;42.068;24.752;2022-12-17T07:11:47;39.72;;;19.60;;
70342;SDS011;57767;42.068;24.752;2022-12-17T07:13:08;44.22;;;19.42;;
70342;SDS011;57767;42.068;24.752;2022-12-17T07:14:28;42.28;;;19.08;;
70342;SDS011;57767;42.068;24.752;2022-12-17T07:15:49;58.30;;;22.02;;
70342;SDS011;57767;42.068;24.752;2022-12-17T07:18:30;55.97;;;19.73;;
70342;SDS011;57767;42.068;24.752;2022-12-17T07:19:50;54.60;;;20.67;;
70342;SDS011;57767;42.068;24.752;2022-12-17T07:21:10;69.57;;;27.40;;
70342;SDS011;57767;42.068;24.752;2022-12-17T07:22:45;204.95;;;85.47;;
70342;SDS011;57767;42.068;24.752;2022-12-17T07:24:05;62.97;;;24.85;;
70342;SDS011;57767;42.068;24.752;2022-12-17T07:25:25;53.92;;;20.73;;
70342;SDS011;57767;42.068;24.752;2022-12-17T07:26:46;76.03;;;32.83;;
70342;SDS011;57767;42.068;24.752;2022-12-17T07:28:06;170.98;;;69.82;;
70342;SDS011;57767;42.068;24.752;2022-12-17T07:29:27;60.00;;;24.73;;
70342;SDS011;57767;42.068;24.752;2022-12-17T07:30:47;74.97;;;35.83;;
70342;SDS011;57767;42.068;24.752;2022-12-17T07:32:19;43.08;;;23.60;;
70342;SDS011;57767;42.068;24.752;2022-12-17T07:33:39;160.63;;;72.88;;
70342;SDS011;57767;42.068;24.752;2022-12-17T07:34:59;60.90;;;31.25;;
70342;SDS011;57767;42.068;24.752;2022-12-17T07:36:20;47.55;;;25.80;;
70342;SDS011;57767;42.068;24.752;2022-12-17T07:37:40;53.00;;;25.52;;
70342;SDS011;57767;42.068;24.752;2022-12-17T07:39:01;42.20;;;22.33;;
70342;SDS011;57767;42.068;24.752;2022-12-17T07:40:21;35.88;;;20.42;;
70342;SDS011;57767;42.068;24.752;2022-12-17T07:41:42;62.25;;;35.20;;
70342;SDS011;57767;42.068;24.752;2022-12-17T07:43:08;54.08;;;28.92;;
70342;SDS011;57767;42.068;24.752;2022-12-17T07:44:30;36.63;;;21.75;;
70342;SDS011;57767;42.068;24.752;2022-12-17T07:45:50;35.50;;;18.10;;
70342;SDS011;57767;42.068;24.752;2022-12-17T07:47:11;84.90;;;54.13;;
70342;SDS011;57767;42.068;24.752;2022-12-17T07:48:31;62.25;;;40.92;;
70342;SDS011;57767;42.068;24.752;2022-12-17T07:49:52;48.35;;;28.35;;
70342;SDS011;57767;42.068;24.752;2022-12-17T07:51:12;38.78;;;21.80;;
70342;SDS011;57767;42.068;24.752;2022-12-17T07:52:32;33.10;;;18.33;;
70342;SDS011;57767;42.068;24.752;2022-12-17T07:53:53;36.08;;;18.73;;
70342;SDS011;57767;42.068;24.752;2022-12-17T07:55:13;34.65;;;18.33;;
70342;SDS011;57767;42.068;24.752;2022-12-17T07:56:34;36.13;;;18.70;;
70342;SDS011;57767;42.068;24.752;2022-12-17T07:58:01;35.78;;;18.13;;
70342;SDS011;57767;42.068;24.752;2022-12-17T07:59:23;39.92;;;19.35;;
70342;SDS011;57767;42.068;24.752;2022-12-17T08:00:44;39.38;;;19.05;;